sensor_id;sensor_type;location;lat;lon;timestamp;pressure;altitude;pressure_sealevel;temperature;humidity
68941;BME280;55982;51.476;7.552;2023-04-26T00:01:56;99999.34;;;1.72;100.00
68941;BME280;55982;51.476;7.552;2023-04-26T00:04:23;99994.16;;;1.69;100.00
68941;BME280;55982;51.476;7.552;2023-04-26T00:06:49;99995.03;;;1.67;100.00
68941;BME280;55982;51.476;7.552;2023-04-26T00:09:14;99999.31;;;1.69;100.00
68941;BME280;55982;51.476;7.552;2023-04-26T00:11:40;100005.34;;;1.67;100.00
68941;BME280;55982;51.476;7.552;2023-04-26T00:14:05;100002.72;;;1.65;100.00
68941;BME280;55982;51.476;7.552;2023-04-26T00:16:31;100004.44;;;1.63;100.00
68941;BME280;55982;51.476;7.552;2023-04-26T00:18:56;99995.81;;;1.58;100.00
68941;BME280;55982;51.476;7.552;2023-04-26T00:21:22;100001.84;;;1.59;100.00
68941;BME280;55982;51.476;7.552;2023-04-26T00:23:47;99999.22;;;1.54;100.00
68941;BME280;55982;51.476;7.552;2023-04-26T00:26:12;100001.81;;;1.50;100.00
68941;BME280;55982;51.476;7.552;2023-04-26T00:28:38;99994.00;;;1.42;100.00
68941;BME280;55982;51.476;7.552;2023-04-26T00:31:03;99997.44;;;1.41;100.00
68941;BME280;55982;51.476;7.552;2023-04-26T00:33:28;100002.59;;;1.38;100.00
68941;BME280;55982;51.476;7.552;2023-04-26T00:35:54;99997.41;;;1.35;100.00
68941;BME280;55982;51.476;7.552;2023-04-26T00:38:20;99996.56;;;1.41;100.00
68941;BME280;55982;51.476;7.552;2023-04-26T00:40:45;99999.16;;;1.39;100.00
68941;BME280;55982;51.476;7.552;2023-04-26T00:43:10;100001.72;;;1.38;100.00
68941;BME280;55982;51.476;7.552;2023-04-26T00:45:36;100000.00;;;1.38;100.00
68941;BME280;55982;51.476;7.552;2023-04-26T00:48:02;99994.00;;;1.39;100.00
68941;BME280;55982;51.476;7.552;2023-04-26T00:50:28;99992.28;;;1.40;100.00
68941;BME280;55982;51.476;7.552;2023-04-26T00:52:56;99994.00;;;1.39;100.00
68941;BME280;55982;51.476;7.552;2023-04-26T00:55:22;99990.53;;;1.37;100.00
68941;BME280;55982;51.476;7.552;2023-04-26T00:57:47;99991.38;;;1.35;100.00
68941;BME280;55982;51.476;7.552;2023-04-26T01:00:13;99989.66;;;1.32;100.00
68941;BME280;55982;51.476;7.552;2023-04-26T01:02:40;99986.22;;;1.32;100.00
68941;BME280;55982;51.476;7.552;2023-04-26T01:05:06;99988.84;;;1.39;100.00
68941;BME280;55982;51.476;7.552;2023-04-26T01:07:32;99988.13;;;1.63;100.00
68941;BME280;55982;51.476;7.552;2023-04-26T01:09:58;99981.19;;;1.53;100.00
68941;BME280;55982;51.476;7.552;2023-04-26T01:12:25;99988.88;;;1.45;100.00
68941;BME280;55982;51.476;7.552;2023-04-26T01:14:50;99983.69;;;1.42;100.00
68941;BME280;55982;51.476;7.552;2023-04-26T01:17:16;99983.69;;;1.36;100.00
68941;BME280;55982;51.476;7.552;2023-04-26T01:19:46;99986.22;;;1.30;100.00
68941;BME280;55982;51.476;7.552;2023-04-26T01:22:11;99990.50;;;1.28;100.00
68941;BME280;55982;51.476;7.552;2023-04-26T01:24:37;99991.31;;;1.26;100.00
68941;BME280;55982;51.476;7.552;2023-04-26T01:27:03;99988.00;;;1.45;100.00
68941;BME280;55982;51.476;7.552;2023-04-26T01:29:30;99988.84;;;1.42;100.00
68941;BME280;55982;51.476;7.552;2023-04-26T01:31:56;99999.16;;;1.39;100.00
68941;BME280;55982;51.476;7.552;2023-04-26T01:34:21;99987.97;;;1.37;100.00
68941;BME280;55982;51.476;7.552;2023-04-26T01:36:46;99999.09;;;1.33;100.00
68941;BME280;55982;51.476;7.552;2023-04-26T01:39:12;99995.66;;;1.31;100.00
68941;BME280;55982;51.476;7.552;2023-04-26T01:41:37;99999.06;;;1.27;100.00
68941;BME280;55982;51.476;7.552;2023-04-26T01:44:03;99999.03;;;1.24;100.00
68941;BME280;55982;51.476;7.552;2023-04-26T01:46:28;99997.31;;;1.23;100.00
68941;BME280;55982;51.476;7.552;2023-04-26T01:48:54;100001.63;;;1.23;100.00
68941;BME280;55982;51.476;7.552;2023-04-26T01:51:19;100005.06;;;1.26;100.00
68941;BME280;55982;51.476;7.552;2023-04-26T01:53:45;100004.19;;;1.24;100.00
68941;BME280;55982;51.476;7.552;2023-04-26T01:56:11;100006.78;;;1.27;100.00
68941;BME280;55982;51.476;7.552;2023-04-26T01:58:36;100000.75;;;1.25;100.00
68941;BME280;55982;51.476;7.552;2023-04-26T02:01:08;100000.72;;;1.19;100.00
68941;BME280;55982;51.476;7.552;2023-04-26T02:03:34;100002.44;;;1.20;100.00
68941;BME280;55982;51.476;7.552;2023-04-26T02:06:00;99990.38;;;1.13;100.00
68941;BME280;55982;51.476;7.552;2023-04-26T02:08:25;99994.66;;;1.11;100.00
68941;BME280;55982;51.476;7.552;2023-04-26T02:10:51;99992.03;;;1.08;100.00
68941;BME280;55982;51.476;7.552;2023-04-26T02:13:16;99995.50;;;1.10;100.00
68941;BME280;55982;51.476;7.552;2023-04-26T02:15:45;99998.94;;;1.12;100.00
68941;BME280;55982;51.476;7.552;2023-04-26T02:18:11;100005.84;;;1.19;100.00
68941;BME280;55982;51.476;7.552;2023-04-26T02:20:39;99998.13;;;1.15;100.00
68941;BME280;55982;51.476;7.552;2023-04-26T02:23:07;99993.78;;;1.09;100.00
68941;BME280;55982;51.476;7.552;2023-04-26T02:25:33;100000.69;;;1.16;100.00
68941;BME280;55982;51.476;7.552;2023-04-26T02:27:58;99999.81;;;1.13;100.00
68941;BME280;55982;51.476;7.552;2023-04-26T02:30:23;99999.78;;;1.08;100.00
68941;BME280;55982;51.476;7.552;2023-04-26T02:32:48;100002.34;;;1.05;100.00
68941;BME280;55982;51.476;7.552;2023-04-26T02:35:14;100000.59;;;1.01;100.00
68941;BME280;55982;51.476;7.552;2023-04-26T02:37:40;99996.25;;;0.94;100.00
68941;BME280;55982;51.476;7.552;2023-04-26T02:40:06;99997.91;;;0.87;100.00
68941;BME280;55982;51.476;7.552;2023-04-26T02:42:31;100001.31;;;0.86;100.00
68941;BME280;55982;51.476;7.552;2023-04-26T02:44:56;99998.66;;;0.79;100.00
68941;BME280;55982;51.476;7.552;2023-04-26T02:47:22;99995.22;;;0.77;100.00
68941;BME280;55982;51.476;7.552;2023-04-26T02:49:47;99995.22;;;0.74;100.00
68941;BME280;55982;51.476;7.552;2023-04-26T02:52:13;99988.38;;;0.76;100.00
68941;BME280;55982;51.476;7.552;2023-04-26T02:54:38;99991.81;;;0.78;100.00
68941;BME280;55982;51.476;7.552;2023-04-26T02:57:03;99990.13;;;0.80;100.00
68941;BME280;55982;51.476;7.552;2023-04-26T02:59:29;99999.53;;;0.78;100.00
68941;BME280;55982;51.476;7.552;2023-04-26T03:01:54;99998.59;;;0.70;100.00
68941;BME280;55982;51.476;7.552;2023-04-26T03:04:19;99999.41;;;0.63;100.00
68941;BME280;55982;51.476;7.552;2023-04-26T03:06:45;99993.38;;;0.64;100.00
68941;BME280;55982;51.476;7.552;2023-04-26T03:09:10;99996.81;;;0.63;100.00
68941;BME280;55982;51.476;7.552;2023-04-26T03:11:36;99995.09;;;0.62;100.00
68941;BME280;55982;51.476;7.552;2023-04-26T03:14:01;99992.50;;;0.60;100.00
68941;BME280;55982;51.476;7.552;2023-04-26T03:16:27;99994.22;;;0.60;100.00
68941;BME280;55982;51.476;7.552;2023-04-26T03:18:52;99983.06;;;0.59;100.00
68941;BME280;55982;51.476;7.552;2023-04-26T03:21:18;99986.47;;;0.58;100.00
68941;BME280;55982;51.476;7.552;2023-04-26T03:23:44;99986.47;;;0.57;100.00
68941;BME280;55982;51.476;7.552;2023-04-26T03:26:10;99981.28;;;0.54;100.00
68941;BME280;55982;51.476;7.552;2023-04-26T03:28:35;99983.84;;;0.52;100.00
68941;BME280;55982;51.476;7.552;2023-04-26T03:31:00;99982.13;;;0.53;100.00
68941;BME280;55982;51.476;7.552;2023-04-26T03:33:26;99982.13;;;0.53;100.00
68941;BME280;55982;51.476;7.552;2023-04-26T03:35:52;99978.69;;;0.49;100.00
68941;BME280;55982;51.476;7.552;2023-04-26T03:38:17;99987.22;;;0.48;100.00
68941;BME280;55982;51.476;7.552;2023-04-26T03:40:43;99986.34;;;0.45;100.00
68941;BME280;55982;51.476;7.552;2023-04-26T03:43:08;99977.78;;;0.46;100.00
68941;BME280;55982;51.476;7.552;2023-04-26T03:45:33;99979.50;;;0.44;100.00
68941;BME280;55982;51.476;7.552;2023-04-26T03:47:59;99981.19;;;0.45;100.00
68941;BME280;55982;51.476;7.552;2023-04-26T03:50:24;99979.50;;;0.47;100.00
68941;BME280;55982;51.476;7.552;2023-04-26T03:52:49;99987.22;;;0.48;100.00
68941;BME280;55982;51.476;7.552;2023-04-26T03:55:15;99987.22;;;0.45;100.00
68941;BME280;55982;51.476;7.552;2023-04-26T03:57:41;99982.06;;;0.44;100.00
68941;BME280;55982;51.476;7.552;2023-04-26T04:00:06;99979.50;;;0.44;100.00
68941;BME280;55982;51.476;7.552;2023-04-26T04:02:36;99985.47;;;0.41;100.00
68941;BME280;55982;51.476;7.552;2023-04-26T04:05:01;99984.59;;;0.41;100.00
68941;BME280;55982;51.476;7.552;2023-04-26T04:07:26;99989.72;;;0.41;100.00
68941;BME280;55982;51.476;7.552;2023-04-26T04:09:52;99979.44;;;0.41;100.00
68941;BME280;55982;51.476;7.552;2023-04-26T04:12:17;99979.44;;;0.38;100.00
68941;BME280;55982;51.476;7.552;2023-04-26T04:14:42;99976.84;;;0.36;100.00
68941;BME280;55982;51.476;7.552;2023-04-26T04:17:08;99974.28;;;0.41;100.00
68941;BME280;55982;51.476;7.552;2023-04-26T04:19:33;99979.44;;;0.41;100.00
68941;BME280;55982;51.476;7.552;2023-04-26T04:21:58;99982.88;;;0.40;100.00
68941;BME280;55982;51.476;7.552;2023-04-26T04:24:24;99973.47;;;0.42;100.00
68941;BME280;55982;51.476;7.552;2023-04-26T04:26:49;99977.72;;;0.40;100.00
68941;BME280;55982;51.476;7.552;2023-04-26T04:29:15;99990.69;;;0.49;100.00
68941;BME280;55982;51.476;7.552;2023-04-26T04:31:40;99982.13;;;0.53;100.00
68941;BME280;55982;51.476;7.552;2023-04-26T04:34:06;99989.88;;;0.56;100.00
68941;BME280;55982;51.476;7.552;2023-04-26T04:36:32;99986.53;;;0.63;100.00
68941;BME280;55982;51.476;7.552;2023-04-26T04:38:58;99991.69;;;0.66;100.00
68941;BME280;55982;51.476;7.552;2023-04-26T04:41:23;99998.59;;;0.70;100.00
68941;BME280;55982;51.476;7.552;2023-04-26T04:43:48;100002.13;;;0.81;100.00
68941;BME280;55982;51.476;7.552;2023-04-26T04:46:14;100000.47;;;0.89;100.00
68941;BME280;55982;51.476;7.552;2023-04-26T04:48:41;99999.72;;;0.98;100.00
68941;BME280;55982;51.476;7.552;2023-04-26T04:51:07;100004.94;;;1.10;100.00
68941;BME280;55982;51.476;7.552;2023-04-26T04:53:33;100000.75;;;1.21;100.00
68941;BME280;55982;51.476;7.552;2023-04-26T04:55:58;100007.66;;;1.29;100.00
68941;BME280;55982;51.476;7.552;2023-04-26T04:58:23;100004.25;;;1.33;100.00
68941;BME280;55982;51.476;7.552;2023-04-26T05:00:50;100014.69;;;1.51;100.00
68941;BME280;55982;51.476;7.552;2023-04-26T05:03:15;100013.03;;;1.62;100.00
68941;BME280;55982;51.476;7.552;2023-04-26T05:05:41;100013.09;;;1.77;100.00
68941;BME280;55982;51.476;7.552;2023-04-26T05:08:06;100014.84;;;1.84;100.00
68941;BME280;55982;51.476;7.552;2023-04-26T05:10:33;100014.94;;;2.00;100.00
68941;BME280;55982;51.476;7.552;2023-04-26T05:12:59;100018.41;;;2.14;100.00
68941;BME280;55982;51.476;7.552;2023-04-26T05:15:24;100021.06;;;2.36;100.00
68941;BME280;55982;51.476;7.552;2023-04-26T05:17:49;100017.69;;;2.58;100.00
68941;BME280;55982;51.476;7.552;2023-04-26T05:20:15;100017.72;;;2.64;100.00
68941;BME280;55982;51.476;7.552;2023-04-26T05:22:41;100016.88;;;2.82;100.00
68941;BME280;55982;51.476;7.552;2023-04-26T05:25:07;100028.06;;;3.01;100.00
68941;BME280;55982;51.476;7.552;2023-04-26T05:27:33;100024.63;;;3.12;100.00
68941;BME280;55982;51.476;7.552;2023-04-26T05:29:59;100024.63;;;3.20;100.00
68941;BME280;55982;51.476;7.552;2023-04-26T05:32:25;100025.47;;;3.29;100.00
68941;BME280;55982;51.476;7.552;2023-04-26T05:34:51;100019.44;;;3.39;100.00
68941;BME280;55982;51.476;7.552;2023-04-26T05:37:16;100029.78;;;3.47;100.00
68941;BME280;55982;51.476;7.552;2023-04-26T05:39:41;100027.16;;;3.60;100.00
68941;BME280;55982;51.476;7.552;2023-04-26T05:42:08;100029.72;;;3.74;100.00
68941;BME280;55982;51.476;7.552;2023-04-26T05:44:33;100034.00;;;3.83;100.00
68941;BME280;55982;51.476;7.552;2023-04-26T05:46:58;100030.53;;;3.91;100.00
68941;BME280;55982;51.476;7.552;2023-04-26T05:49:24;100021.00;;;4.02;100.00
68941;BME280;55982;51.476;7.552;2023-04-26T05:51:49;100028.75;;;4.10;100.00
68941;BME280;55982;51.476;7.552;2023-04-26T05:54:14;100027.84;;;4.18;100.00
68941;BME280;55982;51.476;7.552;2023-04-26T05:56:40;100028.66;;;4.28;100.00
68941;BME280;55982;51.476;7.552;2023-04-26T05:59:07;100023.47;;;4.34;100.00
68941;BME280;55982;51.476;7.552;2023-04-26T06:01:32;100022.53;;;4.45;100.00
68941;BME280;55982;51.476;7.552;2023-04-26T06:03:58;100031.06;;;4.64;100.00
68941;BME280;55982;51.476;7.552;2023-04-26T06:06:23;100029.25;;;4.80;100.00
68941;BME280;55982;51.476;7.552;2023-04-26T06:08:48;100028.34;;;4.85;100.00
68941;BME280;55982;51.476;7.552;2023-04-26T06:11:14;100031.81;;;4.81;100.00
68941;BME280;55982;51.476;7.552;2023-04-26T06:13:39;100023.09;;;4.91;100.00
68941;BME280;55982;51.476;7.552;2023-04-26T06:16:04;100035.03;;;5.16;100.00
68941;BME280;55982;51.476;7.552;2023-04-26T06:18:30;100036.72;;;5.20;100.00
68941;BME280;55982;51.476;7.552;2023-04-26T06:20:55;100036.63;;;5.26;100.00
68941;BME280;55982;51.476;7.552;2023-04-26T06:23:21;100038.28;;;5.39;100.00
68941;BME280;55982;51.476;7.552;2023-04-26T06:25:46;100036.59;;;5.35;100.00
68941;BME280;55982;51.476;7.552;2023-04-26T06:28:11;100035.56;;;5.50;100.00
68941;BME280;55982;51.476;7.552;2023-04-26T06:30:37;100043.38;;;5.48;100.00
68941;BME280;55982;51.476;7.552;2023-04-26T06:33:02;100038.06;;;5.61;100.00
68941;BME280;55982;51.476;7.552;2023-04-26T06:35:28;100045.69;;;5.77;100.00
68941;BME280;55982;51.476;7.552;2023-04-26T06:37:53;100048.22;;;5.88;100.00
68941;BME280;55982;51.476;7.552;2023-04-26T06:40:18;100045.63;;;5.88;100.00
68941;BME280;55982;51.476;7.552;2023-04-26T06:42:44;100039.22;;;6.16;100.00
68941;BME280;55982;51.476;7.552;2023-04-26T06:45:09;100041.72;;;6.23;100.00
68941;BME280;55982;51.476;7.552;2023-04-26T06:47:35;100037.16;;;6.42;100.00
68941;BME280;55982;51.476;7.552;2023-04-26T06:50:02;100040.66;;;6.38;100.00
68941;BME280;55982;51.476;7.552;2023-04-26T06:52:28;100043.50;;;6.85;100.00
68941;BME280;55982;51.476;7.552;2023-04-26T06:54:54;100036.28;;;7.02;100.00
68941;BME280;55982;51.476;7.552;2023-04-26T06:57:20;100035.97;;;7.23;100.00
68941;BME280;55982;51.476;7.552;2023-04-26T06:59:45;100041.69;;;7.45;100.00
68941;BME280;55982;51.476;7.552;2023-04-26T07:02:11;100038.16;;;7.95;100.00
68941;BME280;55982;51.476;7.552;2023-04-26T07:04:36;100042.81;;;7.78;100.00
68941;BME280;55982;51.476;7.552;2023-04-26T07:07:02;100034.75;;;7.90;100.00
68941;BME280;55982;51.476;7.552;2023-04-26T07:09:27;100038.78;;;8.50;100.00
68941;BME280;55982;51.476;7.552;2023-04-26T07:11:52;100032.53;;;8.95;100.00
68941;BME280;55982;51.476;7.552;2023-04-26T07:14:18;100041.50;;;9.56;100.00
68941;BME280;55982;51.476;7.552;2023-04-26T07:16:43;100043.28;;;9.54;100.00
68941;BME280;55982;51.476;7.552;2023-04-26T07:19:08;100038.25;;;8.74;100.00
68941;BME280;55982;51.476;7.552;2023-04-26T07:21:35;100036.59;;;8.70;100.00
68941;BME280;55982;51.476;7.552;2023-04-26T07:24:00;100035.09;;;9.34;100.00
68941;BME280;55982;51.476;7.552;2023-04-26T07:26:26;100030.84;;;8.94;100.00
68941;BME280;55982;51.476;7.552;2023-04-26T07:28:51;100035.97;;;9.68;100.00
68941;BME280;55982;51.476;7.552;2023-04-26T07:31:20;100031.34;;;10.40;100.00
68941;BME280;55982;51.476;7.552;2023-04-26T07:33:45;100037.66;;;10.01;100.00
68941;BME280;55982;51.476;7.552;2023-04-26T07:36:11;100040.28;;;9.69;100.00
68941;BME280;55982;51.476;7.552;2023-04-26T07:38:36;100040.63;;;9.21;100.00
68941;BME280;55982;51.476;7.552;2023-04-26T07:41:01;100039.88;;;8.78;100.00
68941;BME280;55982;51.476;7.552;2023-04-26T07:43:27;100039.25;;;9.76;100.00
68941;BME280;55982;51.476;7.552;2023-04-26T07:45:52;100042.22;;;8.90;100.00
68941;BME280;55982;51.476;7.552;2023-04-26T07:48:18;100043.22;;;9.21;100.00
68941;BME280;55982;51.476;7.552;2023-04-26T07:50:43;100041.41;;;9.92;100.00
68941;BME280;55982;51.476;7.552;2023-04-26T07:53:12;100037.06;;;11.10;100.00
68941;BME280;55982;51.476;7.552;2023-04-26T07:55:37;100036.91;;;11.68;94.62
68941;BME280;55982;51.476;7.552;2023-04-26T07:58:03;100025.78;;;10.52;94.43
68941;BME280;55982;51.476;7.552;2023-04-26T08:00:28;100036.59;;;9.07;100.00
68941;BME280;55982;51.476;7.552;2023-04-26T08:02:54;100043.19;;;9.57;100.00
68941;BME280;55982;51.476;7.552;2023-04-26T08:05:19;100043.91;;;9.63;100.00
68941;BME280;55982;51.476;7.552;2023-04-26T08:07:44;100032.41;;;9.01;100.00
68941;BME280;55982;51.476;7.552;2023-04-26T08:10:10;100034.53;;;9.55;100.00
68941;BME280;55982;51.476;7.552;2023-04-26T08:12:36;100032.56;;;9.96;100.00
68941;BME280;55982;51.476;7.552;2023-04-26T08:15:03;100030.75;;;11.43;95.06
68941;BME280;55982;51.476;7.552;2023-04-26T08:17:29;100037.34;;;12.51;87.62
68941;BME280;55982;51.476;7.552;2023-04-26T08:19:55;100035.63;;;13.18;79.60
68941;BME280;55982;51.476;7.552;2023-04-26T08:22:21;100032.09;;;12.51;78.77
68941;BME280;55982;51.476;7.552;2023-04-26T08:24:48;100035.88;;;11.46;86.04
68941;BME280;55982;51.476;7.552;2023-04-26T08:27:14;100025.13;;;10.44;100.00
68941;BME280;55982;51.476;7.552;2023-04-26T08:29:39;100033.03;;;10.43;95.23
68941;BME280;55982;51.476;7.552;2023-04-26T08:32:05;100034.47;;;10.22;100.00
68941;BME280;55982;51.476;7.552;2023-04-26T08:34:31;100029.34;;;10.19;91.86
68941;BME280;55982;51.476;7.552;2023-04-26T08:36:56;100025.09;;;10.15;100.00
68941;BME280;55982;51.476;7.552;2023-04-26T08:39:22;100018.91;;;11.31;90.10
68941;BME280;55982;51.476;7.552;2023-04-26T08:42:04;100027.25;;;11.93;84.55
68941;BME280;55982;51.476;7.552;2023-04-26T08:44:32;100030.16;;;12.56;81.06
68941;BME280;55982;51.476;7.552;2023-04-26T08:47:13;100027.06;;;12.68;71.67
68941;BME280;55982;51.476;7.552;2023-04-26T08:49:45;100033.75;;;12.99;69.94
68941;BME280;55982;51.476;7.552;2023-04-26T08:52:14;100024.25;;;13.79;68.09
68941;BME280;55982;51.476;7.552;2023-04-26T08:54:41;100024.19;;;14.21;63.83
68941;BME280;55982;51.476;7.552;2023-04-26T08:57:07;100019.13;;;14.55;68.34
68941;BME280;55982;51.476;7.552;2023-04-26T08:59:35;100026.44;;;14.30;60.39
68941;BME280;55982;51.476;7.552;2023-04-26T09:02:01;100021.84;;;14.54;59.30
68941;BME280;55982;51.476;7.552;2023-04-26T09:04:29;100031.81;;;13.87;61.82
68941;BME280;55982;51.476;7.552;2023-04-26T09:07:02;100034.50;;;12.57;64.22
68941;BME280;55982;51.476;7.552;2023-04-26T09:09:35;100037.88;;;11.38;64.70
68941;BME280;55982;51.476;7.552;2023-04-26T09:12:07;100039.34;;;10.92;67.55
68941;BME280;55982;51.476;7.552;2023-04-26T09:14:33;100033.84;;;11.54;68.97
68941;BME280;55982;51.476;7.552;2023-04-26T09:16:58;100035.16;;;12.16;69.53
68941;BME280;55982;51.476;7.552;2023-04-26T09:19:37;100037.38;;;13.81;60.87
68941;BME280;55982;51.476;7.552;2023-04-26T09:22:03;100036.94;;;14.10;61.84
68941;BME280;55982;51.476;7.552;2023-04-26T09:24:49;100037.19;;;13.64;60.78
68941;BME280;55982;51.476;7.552;2023-04-26T09:27:17;100037.50;;;13.15;61.71
68941;BME280;55982;51.476;7.552;2023-04-26T09:30:01;100035.94;;;13.11;62.13
68941;BME280;55982;51.476;7.552;2023-04-26T09:35:29;100035.47;;;11.58;66.43
68941;BME280;55982;51.476;7.552;2023-04-26T09:38:02;100035.44;;;11.05;66.82
68941;BME280;55982;51.476;7.552;2023-04-26T09:40:48;100035.81;;;10.93;72.56
68941;BME280;55982;51.476;7.552;2023-04-26T09:43:15;100030.16;;;11.07;67.47
68941;BME280;55982;51.476;7.552;2023-04-26T09:45:49;100030.88;;;10.84;67.70
68941;BME280;55982;51.476;7.552;2023-04-26T09:48:28;100030.66;;;10.63;72.27
68941;BME280;55982;51.476;7.552;2023-04-26T09:51:08;100040.88;;;10.99;69.15
68941;BME280;55982;51.476;7.552;2023-04-26T09:53:54;100033.25;;;10.03;71.05
68941;BME280;55982;51.476;7.552;2023-04-26T09:56:19;100042.84;;;9.37;75.81
68941;BME280;55982;51.476;7.552;2023-04-26T10:01:17;100044.75;;;9.30;83.23
68941;BME280;55982;51.476;7.552;2023-04-26T10:03:44;100047.13;;;9.41;80.49
68941;BME280;55982;51.476;7.552;2023-04-26T10:06:11;100047.41;;;9.29;82.99
68941;BME280;55982;51.476;7.552;2023-04-26T10:08:36;100031.19;;;8.79;87.27
68941;BME280;55982;51.476;7.552;2023-04-26T10:11:05;100043.22;;;9.21;81.60
68941;BME280;55982;51.476;7.552;2023-04-26T10:13:43;100034.41;;;9.27;87.19
68941;BME280;55982;51.476;7.552;2023-04-26T10:16:09;100031.91;;;9.56;81.88
68941;BME280;55982;51.476;7.552;2023-04-26T10:18:34;100033.25;;;9.39;80.73
68941;BME280;55982;51.476;7.552;2023-04-26T10:21:21;100032.44;;;9.69;79.81
68941;BME280;55982;51.476;7.552;2023-04-26T10:23:50;100022.00;;;10.32;77.13
68941;BME280;55982;51.476;7.552;2023-04-26T10:32:21;100014.88;;;12.44;68.32
68941;BME280;55982;51.476;7.552;2023-04-26T10:35:12;100006.31;;;12.39;66.21
68941;BME280;55982;51.476;7.552;2023-04-26T10:40:42;100016.41;;;11.53;65.37
68941;BME280;55982;51.476;7.552;2023-04-26T10:45:36;100006.69;;;11.82;68.03
68941;BME280;55982;51.476;7.552;2023-04-26T10:53:24;100008.81;;;11.71;63.25
68941;BME280;55982;51.476;7.552;2023-04-26T10:55:50;100010.47;;;11.99;62.29
68941;BME280;55982;51.476;7.552;2023-04-26T10:58:26;100013.22;;;12.19;63.47
68941;BME280;55982;51.476;7.552;2023-04-26T11:03:36;100009.88;;;12.83;64.66
68941;BME280;55982;51.476;7.552;2023-04-26T11:06:09;100008.66;;;12.92;60.32
68941;BME280;55982;51.476;7.552;2023-04-26T11:08:38;100004.63;;;13.48;59.40
68941;BME280;55982;51.476;7.552;2023-04-26T11:13:34;100014.19;;;13.49;59.36
68941;BME280;55982;51.476;7.552;2023-04-26T11:16:01;100003.03;;;11.36;63.25
68941;BME280;55982;51.476;7.552;2023-04-26T11:18:31;100003.41;;;12.47;61.39
68941;BME280;55982;51.476;7.552;2023-04-26T11:20:57;100018.53;;;13.08;58.89
68941;BME280;55982;51.476;7.552;2023-04-26T11:23:24;100001.28;;;13.23;56.39
68941;BME280;55982;51.476;7.552;2023-04-26T11:25:50;100006.44;;;12.36;56.22
68941;BME280;55982;51.476;7.552;2023-04-26T11:28:17;99997.31;;;12.23;56.64
68941;BME280;55982;51.476;7.552;2023-04-26T11:30:43;100005.34;;;11.71;59.05
68941;BME280;55982;51.476;7.552;2023-04-26T11:33:15;99999.03;;;11.26;61.58
68941;BME280;55982;51.476;7.552;2023-04-26T11:35:52;100002.59;;;10.40;61.66
68941;BME280;55982;51.476;7.552;2023-04-26T11:38:21;100000.69;;;10.45;62.34
68941;BME280;55982;51.476;7.552;2023-04-26T11:40:57;99999.09;;;10.69;64.44
68941;BME280;55982;51.476;7.552;2023-04-26T11:46:00;100003.56;;;10.36;68.06
68941;BME280;55982;51.476;7.552;2023-04-26T11:48:26;99996.59;;;10.64;68.65
68941;BME280;55982;51.476;7.552;2023-04-26T11:50:52;99998.69;;;11.08;69.38
68941;BME280;55982;51.476;7.552;2023-04-26T11:53:18;100005.03;;;11.28;67.16
68941;BME280;55982;51.476;7.552;2023-04-26T11:55:43;99997.28;;;10.98;67.77
68941;BME280;55982;51.476;7.552;2023-04-26T11:58:11;100008.44;;;10.77;66.23
68941;BME280;55982;51.476;7.552;2023-04-26T12:01:00;100007.28;;;10.86;70.79
68941;BME280;55982;51.476;7.552;2023-04-26T12:03:33;100010.41;;;10.69;66.91
68941;BME280;55982;51.476;7.552;2023-04-26T12:06:03;100009.25;;;11.32;66.64
68941;BME280;55982;51.476;7.552;2023-04-26T12:08:29;100005.34;;;11.71;66.25
68941;BME280;55982;51.476;7.552;2023-04-26T12:11:01;100014.88;;;12.44;65.13
68941;BME280;55982;51.476;7.552;2023-04-26T12:13:29;100001.84;;;13.91;59.14
68941;BME280;55982;51.476;7.552;2023-04-26T12:15:55;100003.41;;;15.08;57.53
68941;BME280;55982;51.476;7.552;2023-04-26T12:18:20;100002.00;;;16.05;53.13
68941;BME280;55982;51.476;7.552;2023-04-26T12:20:47;100000.31;;;14.82;55.14
68941;BME280;55982;51.476;7.552;2023-04-26T12:23:14;100008.28;;;13.84;56.96
68941;BME280;55982;51.476;7.552;2023-04-26T12:25:51;100003.69;;;13.89;56.47
68941;BME280;55982;51.476;7.552;2023-04-26T12:28:17;100003.38;;;14.35;55.24
68941;BME280;55982;51.476;7.552;2023-04-26T12:30:42;100004.91;;;13.62;56.92
68941;BME280;55982;51.476;7.552;2023-04-26T12:33:07;100006.25;;;13.50;58.56
68941;BME280;55982;51.476;7.552;2023-04-26T12:35:33;99999.53;;;14.80;57.06
68941;BME280;55982;51.476;7.552;2023-04-26T12:37:59;100003.97;;;14.60;54.81
68941;BME280;55982;51.476;7.552;2023-04-26T12:40:26;99995.00;;;14.64;53.41
68941;BME280;55982;51.476;7.552;2023-04-26T12:42:52;100003.19;;;15.13;52.16
68941;BME280;55982;51.476;7.552;2023-04-26T12:45:20;99998.03;;;15.97;51.11
68941;BME280;55982;51.476;7.552;2023-04-26T12:47:46;99997.84;;;15.50;52.14
68941;BME280;55982;51.476;7.552;2023-04-26T12:50:13;99994.13;;;15.71;50.52
68941;BME280;55982;51.476;7.552;2023-04-26T12:52:39;100004.31;;;14.34;51.54
68941;BME280;55982;51.476;7.552;2023-04-26T12:55:09;100004.56;;;14.08;53.10
68941;BME280;55982;51.476;7.552;2023-04-26T12:57:35;99990.28;;;13.35;54.53
68941;BME280;55982;51.476;7.552;2023-04-26T13:00:02;99997.81;;;12.77;58.81
68941;BME280;55982;51.476;7.552;2023-04-26T13:02:28;100006.25;;;12.85;57.81
68941;BME280;55982;51.476;7.552;2023-04-26T13:04:54;99995.16;;;12.34;58.27
68941;BME280;55982;51.476;7.552;2023-04-26T13:07:19;99996.22;;;13.18;59.21
68941;BME280;55982;51.476;7.552;2023-04-26T13:09:45;99993.91;;;12.44;58.78
68941;BME280;55982;51.476;7.552;2023-04-26T13:12:10;99994.34;;;12.99;57.53
68941;BME280;55982;51.476;7.552;2023-04-26T13:14:36;99988.16;;;12.56;58.62
68941;BME280;55982;51.476;7.552;2023-04-26T13:17:03;99987.94;;;13.69;57.66
68941;BME280;55982;51.476;7.552;2023-04-26T13:19:28;99991.56;;;14.25;55.08
68941;BME280;55982;51.476;7.552;2023-04-26T13:21:54;99986.56;;;14.19;53.50
68941;BME280;55982;51.476;7.552;2023-04-26T13:24:19;99989.06;;;15.14;52.01